createdAt,value
2019-03-09T00:02:12.648Z,9.80
2019-03-09T00:07:16.286Z,9.90
2019-03-09T00:12:20.209Z,9.90
2019-03-09T00:17:24.371Z,9.90
2019-03-09T00:22:28.398Z,9.90
2019-03-09T00:27:34.145Z,9.90
2019-03-09T00:32:37.873Z,9.90
2019-03-09T00:37:41.533Z,9.90
2019-03-09T00:42:45.185Z,9.90
2019-03-09T00:47:48.882Z,10.00
2019-03-09T00:52:52.465Z,10.00
2019-03-09T00:57:56.186Z,10.00
2019-03-09T01:03:00.146Z,10.00
2019-03-09T01:08:03.858Z,10.00
2019-03-09T01:13:07.788Z,10.00
2019-03-09T01:18:11.948Z,9.90
2019-03-09T01:23:15.841Z,10.00
2019-03-09T01:28:19.580Z,9.90
2019-03-09T01:33:23.287Z,9.90
2019-03-09T01:38:26.939Z,9.80
2019-03-09T01:43:30.835Z,9.80
2019-03-09T01:48:34.430Z,9.80
2019-03-09T01:53:38.089Z,9.70
2019-03-09T01:58:42.317Z,9.70
2019-03-09T02:03:45.975Z,9.70
2019-03-09T02:08:49.548Z,9.70
2019-03-09T02:13:53.117Z,9.70
2019-03-09T02:18:56.784Z,9.60
2019-03-09T02:24:00.389Z,9.60
2019-03-09T02:29:04.121Z,9.60
2019-03-09T02:34:08.120Z,9.60
2019-03-09T02:39:19.549Z,9.60
2019-03-09T02:44:23.211Z,9.60
2019-03-09T02:49:26.797Z,9.50
2019-03-09T02:54:30.452Z,9.60
2019-03-09T02:59:34.155Z,9.60
2019-03-09T03:04:38.108Z,9.60
2019-03-09T03:09:42.162Z,9.60
2019-03-09T03:14:45.745Z,9.60
2019-03-09T03:19:49.818Z,9.60
2019-03-09T03:24:53.569Z,9.60
2019-03-09T03:29:57.250Z,9.60
2019-03-09T03:35:00.901Z,9.60
2019-03-09T03:40:07.735Z,9.50
2019-03-09T03:45:30.717Z,9.60
2019-03-09T03:50:34.679Z,9.60
2019-03-09T03:55:38.395Z,9.60
2019-03-09T04:00:42.109Z,9.60
2019-03-09T04:05:45.839Z,9.60
2019-03-09T04:10:50.066Z,9.60
2019-03-09T04:15:53.794Z,9.60
2019-03-09T04:20:57.507Z,9.60
2019-03-09T04:26:20.482Z,9.50
2019-03-09T04:31:24.268Z,9.50
2019-03-09T04:36:27.940Z,9.40
2019-03-09T04:41:31.553Z,9.40
2019-03-09T04:46:35.129Z,9.30
2019-03-09T04:51:38.722Z,9.30
2019-03-09T04:56:42.302Z,9.20
2019-03-09T05:01:46.021Z,9.20
2019-03-09T05:06:50.192Z,9.20
2019-03-09T05:11:53.840Z,9.10
2019-03-09T05:16:57.506Z,9.10
2019-03-09T05:22:01.176Z,9.10
2019-03-09T05:27:05.332Z,9.00
2019-03-09T05:32:08.992Z,8.90
2019-03-09T05:37:12.584Z,8.90
2019-03-09T05:42:16.581Z,8.80
2019-03-09T05:47:20.227Z,8.90
2019-03-09T05:52:26.930Z,8.80
2019-03-09T05:57:30.589Z,8.80
2019-03-09T06:02:34.189Z,8.90
2019-03-09T06:07:37.763Z,8.80
2019-03-09T06:12:41.342Z,8.80
2019-03-09T06:17:44.957Z,8.70
2019-03-09T06:22:48.761Z,8.70
2019-03-09T06:27:52.494Z,8.60
2019-03-09T06:33:17.758Z,8.50
2019-03-09T06:38:44.094Z,8.50
2019-03-09T06:44:07.102Z,8.40
2019-03-09T06:49:12.395Z,8.20
2019-03-09T06:54:15.980Z,8.20
2019-03-09T06:59:19.650Z,8.20
2019-03-09T07:04:23.300Z,8.30
2019-03-09T07:09:26.898Z,8.30
2019-03-09T07:14:53.311Z,8.40
2019-03-09T07:19:56.900Z,8.40
2019-03-09T07:25:00.498Z,8.50
2019-03-09T07:30:07.389Z,8.60
2019-03-09T07:35:11.444Z,8.60
2019-03-09T07:40:16.728Z,8.60
2019-03-09T07:45:39.824Z,8.70
2019-03-09T07:50:43.410Z,8.80
2019-03-09T07:55:47.130Z,8.70
2019-03-09T08:00:50.859Z,8.80
2019-03-09T08:05:54.942Z,8.80
2019-03-09T08:10:59.055Z,9.00
2019-03-09T08:16:02.659Z,9.00
2019-03-09T08:21:06.658Z,9.00
2019-03-09T08:26:10.399Z,9.20
2019-03-09T08:31:14.345Z,9.10
2019-03-09T08:36:18.366Z,9.20
2019-03-09T08:41:22.092Z,9.30
2019-03-09T08:46:26.183Z,9.40
2019-03-09T08:51:29.920Z,9.60
2019-03-09T08:56:33.842Z,9.60
2019-03-09T09:01:37.465Z,9.70
2019-03-09T09:06:41.010Z,9.90
2019-03-09T09:11:44.814Z,10.00
2019-03-09T09:16:48.410Z,10.00
2019-03-09T09:21:53.701Z,10.00
2019-03-09T09:26:57.289Z,10.20
2019-03-09T09:32:00.880Z,10.00
2019-03-09T09:37:04.678Z,10.10
2019-03-09T09:42:08.350Z,10.10
2019-03-09T09:47:12.407Z,10.20
2019-03-09T09:52:16.306Z,10.20
2019-03-09T09:57:19.911Z,10.10
2019-03-09T10:02:23.779Z,10.20
2019-03-09T10:07:27.663Z,10.30
2019-03-09T10:12:31.328Z,10.30
2019-03-09T10:17:35.457Z,10.30
2019-03-09T10:22:39.131Z,10.40
2019-03-09T10:27:43.075Z,10.60
2019-03-09T10:32:47.111Z,10.70
2019-03-09T10:37:50.964Z,10.80
2019-03-09T10:42:54.626Z,10.80
2019-03-09T10:47:58.405Z,10.80
2019-03-09T10:53:01.992Z,10.70
2019-03-09T10:58:05.689Z,10.80
2019-03-09T11:03:09.905Z,10.90
2019-03-09T11:08:13.560Z,10.90
2019-03-09T11:13:17.188Z,10.90
2019-03-09T11:18:20.929Z,11.00
2019-03-09T11:23:24.688Z,11.10
2019-03-09T11:28:28.265Z,11.10
2019-03-09T11:33:32.012Z,11.20
2019-03-09T11:38:35.688Z,11.10
2019-03-09T11:43:39.281Z,11.00
2019-03-09T11:48:42.863Z,11.00
2019-03-09T11:53:46.518Z,11.10
2019-03-09T11:58:50.664Z,11.20
2019-03-09T12:03:54.255Z,11.30
2019-03-09T12:08:57.970Z,11.30
2019-03-09T12:14:01.589Z,11.40
2019-03-09T12:19:05.467Z,11.50
2019-03-09T12:24:28.608Z,11.50
2019-03-09T12:29:32.651Z,11.50
2019-03-09T12:34:36.248Z,11.50
2019-03-09T12:39:39.904Z,11.50
2019-03-09T12:44:43.620Z,11.40
2019-03-09T12:49:47.349Z,11.10
2019-03-09T12:54:51.010Z,10.80
2019-03-09T12:59:54.681Z,10.60
2019-03-09T13:04:58.371Z,10.40
2019-03-09T13:10:02.340Z,10.20
2019-03-09T13:15:08.435Z,10.10
2019-03-09T13:20:14.564Z,10.00
2019-03-09T13:25:18.632Z,10.00
2019-03-09T13:30:23.645Z,9.90
2019-03-09T13:35:27.317Z,9.90
2019-03-09T13:40:50.246Z,9.90
2019-03-09T13:45:53.916Z,9.90
2019-03-09T13:50:57.512Z,10.00
2019-03-09T13:56:01.108Z,10.10
2019-03-09T14:01:04.833Z,10.10
2019-03-09T14:06:08.568Z,10.20
2019-03-09T14:11:12.218Z,10.30
2019-03-09T14:16:15.776Z,10.40
2019-03-09T14:21:19.522Z,10.50
2019-03-09T14:26:23.189Z,10.60
2019-03-09T14:31:27.200Z,10.60
2019-03-09T14:36:30.861Z,10.60
2019-03-09T14:41:34.464Z,10.60
2019-03-09T14:46:38.082Z,10.50
2019-03-09T14:51:41.657Z,10.40
2019-03-09T14:56:45.407Z,10.30
2019-03-09T15:01:49.146Z,10.30
2019-03-09T15:06:52.757Z,10.30
2019-03-09T15:11:56.431Z,10.30
2019-03-09T15:17:00.341Z,10.60
2019-03-09T15:22:04.341Z,10.70
2019-03-09T15:27:08.076Z,11.10
2019-03-09T15:32:12.009Z,11.30
2019-03-09T15:37:15.678Z,11.20
2019-03-09T15:42:19.748Z,11.20
2019-03-09T15:47:23.783Z,11.30
2019-03-09T15:52:27.733Z,11.20
2019-03-09T15:57:31.469Z,11.20
2019-03-09T16:02:35.245Z,11.20
2019-03-09T16:07:38.828Z,11.20
2019-03-09T16:12:42.668Z,11.20
2019-03-09T16:17:46.426Z,11.20
2019-03-09T16:22:50.162Z,11.30
2019-03-09T16:27:53.919Z,11.30
2019-03-09T16:32:57.588Z,11.40
2019-03-09T16:38:01.564Z,11.40
2019-03-09T16:43:05.299Z,11.50
2019-03-09T16:48:09.298Z,11.40
2019-03-09T16:53:13.042Z,11.40
2019-03-09T16:58:16.624Z,11.40
2019-03-09T17:03:20.302Z,11.30
2019-03-09T17:08:26.646Z,11.30
2019-03-09T17:13:30.422Z,11.30
2019-03-09T17:18:34.608Z,11.30
2019-03-09T17:23:38.220Z,11.30
2019-03-09T17:28:41.822Z,11.30
2019-03-09T17:33:45.804Z,11.30
2019-03-09T17:38:49.721Z,11.20
2019-03-09T17:43:53.462Z,11.30
2019-03-09T17:48:57.223Z,11.30
2019-03-09T17:54:00.978Z,11.30
2019-03-09T17:59:04.629Z,11.30
2019-03-09T18:04:08.509Z,11.30
2019-03-09T18:09:15.787Z,11.30
2019-03-09T18:14:19.782Z,11.30
2019-03-09T18:19:24.093Z,11.30
2019-03-09T18:24:28.640Z,11.40
2019-03-09T18:29:34.116Z,11.40
2019-03-09T18:34:38.080Z,11.40
2019-03-09T18:39:41.749Z,11.50
2019-03-09T18:44:45.419Z,11.50
2019-03-09T18:49:49.016Z,11.40
2019-03-09T18:54:52.781Z,11.50
2019-03-09T18:59:56.377Z,11.50
2019-03-09T19:05:00.119Z,11.50
2019-03-09T19:10:06.132Z,11.60
2019-03-09T19:15:12.680Z,11.60
2019-03-09T19:20:17.591Z,11.60
2019-03-09T19:25:22.717Z,11.60
2019-03-09T19:30:26.801Z,11.60
2019-03-09T19:35:30.834Z,11.60
2019-03-09T19:40:35.763Z,11.70
2019-03-09T19:45:39.380Z,11.70
2019-03-09T19:50:43.112Z,11.60
2019-03-09T19:55:46.797Z,11.80
2019-03-09T20:00:50.465Z,11.80
2019-03-09T20:05:54.133Z,11.80
2019-03-09T20:10:57.789Z,11.80
2019-03-09T20:16:01.420Z,11.80
2019-03-09T20:21:05.511Z,11.80
2019-03-09T20:26:09.649Z,11.80
2019-03-09T20:31:13.648Z,11.80
2019-03-09T20:36:17.481Z,11.80
2019-03-09T20:41:21.573Z,11.90
2019-03-09T20:46:25.259Z,11.90
2019-03-09T20:51:29.884Z,11.90
2019-03-09T20:56:33.941Z,11.90
2019-03-09T21:01:37.687Z,11.90
2019-03-09T21:06:41.911Z,11.90
2019-03-09T21:11:46.811Z,12.00
2019-03-09T21:16:51.765Z,12.00
2019-03-09T21:21:55.462Z,12.10
2019-03-09T21:26:59.878Z,12.10
2019-03-09T21:32:04.100Z,12.00
2019-03-09T21:37:07.877Z,12.10
2019-03-09T21:42:11.514Z,12.10
2019-03-09T21:47:17.067Z,12.20
2019-03-09T21:52:20.922Z,12.20
2019-03-09T21:57:24.458Z,12.20
2019-03-09T22:02:28.045Z,12.20
2019-03-09T22:07:31.931Z,12.20
2019-03-09T22:12:35.653Z,12.20
2019-03-09T22:17:39.544Z,12.20
2019-03-09T22:22:43.303Z,12.20
2019-03-09T22:27:47.224Z,12.20
2019-03-09T22:32:50.881Z,12.20
2019-03-09T22:37:54.619Z,12.20
2019-03-09T22:42:58.292Z,12.20
2019-03-09T22:48:02.357Z,12.20
2019-03-09T22:53:06.026Z,12.20
2019-03-09T22:58:09.693Z,12.20
2019-03-09T23:03:13.377Z,12.20
2019-03-09T23:08:20.006Z,12.20
2019-03-09T23:13:23.650Z,12.20
2019-03-09T23:18:27.731Z,12.20
2019-03-09T23:23:31.377Z,12.20
2019-03-09T23:28:45.668Z,12.10
2019-03-09T23:33:49.398Z,12.10
2019-03-09T23:38:53.059Z,12.10
2019-03-09T23:43:56.719Z,12.10
2019-03-09T23:49:00.463Z,12.10
2019-03-09T23:54:04.188Z,12.00
2019-03-09T23:59:07.842Z,12.10
